Time;durP1;ratioP1;P1;durP2;ratioP2;P2;SDS_P1;SDS_P2;PMS_P1;PMS_P2;Temp;Humidity;BMP_temperature;BMP_pressure;BME280_temperature;BME280_humidity;BME280_pressure;Samples;Min_cycle;Max_cycle;Signal;HPM_P1;HPM_P2
2024/01/31 00:02:08;;;;;;;;;;;9.00;1.00;;;;;;5015774;28;19916;-80
2024/01/31 00:07:37;;;;;;;;;;;9.00;1.00;;;;;;5016507;28;19952;-80
2024/01/31 00:13:27;;;;;;;;;;;8.90;1.00;;;;;;5034769;28;19928;-80
2024/01/31 00:18:56;;;;;;;;;;;8.90;1.00;;;;;;5050094;28;19916;-79
2024/01/31 00:21:21;;;;;;;;;;;8.90;1.00;;;;;;5021511;28;19905;-80
2024/01/31 00:27:03;;;;;;;;;;;8.90;1.00;;;;;;5015111;28;19958;-79
2024/01/31 00:32:32;;;;;;;;;;;8.90;1.00;;;;;;5022279;28;19951;-79
2024/01/31 00:34:57;;;;;;;;;;;8.90;1.00;;;;;;5032516;28;19909;-79
2024/01/31 00:43:39;;;;;;;;;;;8.80;1.00;;;;;;5032856;28;19912;-80
2024/01/31 00:46:05;;;;;;;;;;;8.80;1.00;;;;;;5033398;28;19909;-80
2024/01/31 00:54:45;;;;;;;;;;;8.60;1.00;;;;;;5027176;28;19992;-80
2024/01/31 00:57:11;;;;;;;;;;;8.60;1.00;;;;;;5033980;28;20341;-80
2024/01/31 01:05:42;;;;;;;;;;;8.60;1.00;;;;;;5025145;28;20427;-80
2024/01/31 01:11:11;;;;;;;;;;;8.70;1.00;;;;;;5016802;28;19912;-80
2024/01/31 01:19:42;;;;;;;;;;;8.60;1.00;;;;;;5031978;28;20006;-80
2024/01/31 01:25:10;;;;;;;;;;;8.60;1.00;;;;;;5014079;28;20364;-80
2024/01/31 01:27:50;;;;;;;;;;;8.60;1.00;;;;;;5014211;28;19914;-80
2024/01/31 01:33:19;;;;;;;;;;;8.60;1.00;;;;;;5034170;28;19927;-80
2024/01/31 01:38:47;;;;;;;;;;;8.60;1.00;;;;;;5018383;28;20427;-80
2024/01/31 01:41:45;;;;;;;;;;;8.60;1.00;;;;;;5012748;28;19913;-80
2024/01/31 01:47:15;;;;;;;;;;;8.60;1.60;;;;;;5014250;28;19975;-80
2024/01/31 01:50:15;;;;;;;;;;;8.60;1.50;;;;;;5015813;28;20387;-80
2024/01/31 01:55:44;;;;;;;;;;;8.60;1.00;;;;;;5020310;28;19911;-80
2024/01/31 01:58:10;;;;;;;;;;;8.50;1.00;;;;;;5029133;28;19999;-80
2024/01/31 02:03:41;;;;;;;;;;;8.50;1.00;;;;;;5019686;28;20376;-80
2024/01/31 02:09:10;;;;;;;;;;;8.50;1.00;;;;;;5033421;28;19916;-80
2024/01/31 02:17:41;;;;;;;;;;;8.40;1.00;;;;;;5027208;28;19912;-80
2024/01/31 02:29:15;;;;;;;;;;;8.30;1.00;;;;;;5034941;28;20375;-80
2024/01/31 02:34:44;;;;;;;;;;;8.20;1.00;;;;;;5026649;28;19919;-80
2024/01/31 02:46:18;;;;;;;;;;;8.00;1.00;;;;;;5016905;28;19958;-80
2024/01/31 02:49:03;;;;;;;;;;;7.90;1.00;;;;;;5032781;28;19913;-80
2024/01/31 02:54:32;;;;;;;;;;;7.80;3.90;;;;;;5036604;28;20541;-80
2024/01/31 03:00:00;;;;;;;;;;;7.80;4.30;;;;;;5032562;28;19914;-80
2024/01/31 03:02:27;;;;;;;;;;;7.80;7.30;;;;;;5026083;28;19909;-80
2024/01/31 03:04:53;;;;;;;;;;;7.70;5.90;;;;;;5026084;28;19909;-80
2024/01/31 03:07:18;;;;;;;;;;;7.70;8.30;;;;;;5027456;28;19909;-80
2024/01/31 03:16:09;;;;;;;;;;;7.70;11.50;;;;;;5022698;28;19959;-80
2024/01/31 03:22:09;;;;;;;;;;;7.50;13.80;;;;;;5027321;28;20280;-80
2024/01/31 03:25:06;;;;;;;;;;;7.50;17.80;;;;;;5029640;28;19910;-80
2024/01/31 03:27:31;;;;;;;;;;;7.50;16.20;;;;;;5016836;28;19918;-80
2024/01/31 03:33:00;;;;;;;;;;;7.50;19.10;;;;;;5016302;28;19960;-80
2024/01/31 03:38:58;;;;;;;;;;;7.40;19.70;;;;;;5019113;28;19965;-80
2024/01/31 03:41:45;;;;;;;;;;;7.40;18.10;;;;;;5025726;28;19909;-80
2024/01/31 03:53:20;;;;;;;;;;;7.20;19.40;;;;;;5015378;28;20377;-80
2024/01/31 03:58:49;;;;;;;;;;;7.20;19.60;;;;;;5032731;28;19916;-80
2024/01/31 04:04:21;;;;;;;;;;;7.10;16.00;;;;;;5029140;28;19916;-80
2024/01/31 04:18:59;;;;;;;;;;;6.70;15.30;;;;;;5020330;28;19974;-80
2024/01/31 04:24:27;;;;;;;;;;;6.60;18.10;;;;;;5034843;28;19916;-80
2024/01/31 04:29:56;;;;;;;;;;;6.50;16.80;;;;;;5024535;28;20399;-80
2024/01/31 04:35:24;;;;;;;;;;;6.30;16.80;;;;;;5018312;28;20272;-80
2024/01/31 04:40:53;;;;;;;;;;;6.10;15.30;;;;;;5026042;28;19920;-80
2024/01/31 04:49:33;;;;;;;;;;;5.80;13.10;;;;;;5018783;28;19917;-80
2024/01/31 04:51:59;;;;;;;;;;;5.70;12.80;;;;;;5028471;28;20002;-80
2024/01/31 05:03:57;;;;;;;;;;;5.30;13.70;;;;;;5025267;28;19966;-80
2024/01/31 05:21:48;;;;;;;;;;;4.80;18.20;;;;;;5032884;28;20018;-81
2024/01/31 05:27:16;;;;;;;;;;;4.70;21.70;;;;;;5029867;28;19945;-81
2024/01/31 05:32:57;;;;;;;;;;;4.70;21.30;;;;;;5029502;28;20004;-80
2024/01/31 05:38:26;;;;;;;;;;;4.60;22.40;;;;;;5024498;28;19935;-76
2024/01/31 05:43:55;;;;;;;;;;;4.60;22.50;;;;;;5033262;28;19927;-78
2024/01/31 05:46:45;;;;;;;;;;;4.50;23.80;;;;;;5033197;28;20352;-78
2024/01/31 05:49:15;;;;;;;;;;;4.50;26.50;;;;;;5029853;28;19909;-80
2024/01/31 06:07:12;;;;;;;;;;;4.30;28.10;;;;;;5025578;28;20358;-82
2024/01/31 06:15:43;;;;;;;;;;;4.00;28.50;;;;;;5030254;28;19923;-82
2024/01/31 06:21:11;;;;;;;;;;;3.80;25.50;;;;;;5023914;28;20371;-81
2024/01/31 06:26:40;;;;;;;;;;;3.70;29.70;;;;;;5016844;28;22267;-81
2024/01/31 06:32:08;;;;;;;;;;;3.60;34.30;;;;;;5036684;28;20271;-81
2024/01/31 06:34:40;;;;;;;;;;;3.60;37.50;;;;;;5029187;28;19905;-80
2024/01/31 06:40:22;;;;;;;;;;;3.40;37.60;;;;;;5034625;28;19916;-80
2024/01/31 06:45:50;;;;;;;;;;;3.50;37.50;;;;;;5039362;28;19916;-81
2024/01/31 07:00:45;;;;;;;;;;;3.90;34.50;;;;;;5034983;28;19912;-82
2024/01/31 07:03:23;;;;;;;;;;;3.90;37.70;;;;;;5040377;28;20418;-82
2024/01/31 07:08:52;;;;;;;;;;;4.00;37.90;;;;;;5034362;28;20399;-81
2024/01/31 07:11:51;;;;;;;;;;;4.00;34.60;;;;;;5037690;28;19905;-81
2024/01/31 07:17:20;;;;;;;;;;;4.10;34.70;;;;;;5029632;28;20003;-81
2024/01/31 07:19:58;;;;;;;;;;;4.10;37.80;;;;;;5029617;28;19952;-81
2024/01/31 07:22:23;;;;;;;;;;;4.20;34.80;;;;;;5035322;28;19921;-83
2024/01/31 07:24:49;;;;;;;;;;;4.20;37.90;;;;;;5031470;28;19955;-83
2024/01/31 07:30:17;;;;;;;;;;;4.30;38.00;;;;;;5034398;28;19955;-82
2024/01/31 07:32:57;;;;;;;;;;;4.40;38.00;;;;;;5031019;28;19949;-83
2024/01/31 07:38:33;;;;;;;;;;;4.50;35.00;;;;;;5028543;28;19955;-83
2024/01/31 07:44:27;;;;;;;;;;;4.60;38.40;;;;;;5028952;28;19937;-83
2024/01/31 07:47:21;;;;;;;;;;;4.70;35.20;;;;;;5048891;28;19971;-84
2024/01/31 07:55:53;;;;;;;;;;;5.00;38.70;;;;;;5033690;28;19920;-82
2024/01/31 07:58:45;;;;;;;;;;;5.10;38.40;;;;;;5032161;28;19905;-81
2024/01/31 08:04:27;;;;;;;;;;;5.30;35.70;;;;;;5029261;28;19998;-81
2024/01/31 08:07:03;;;;;;;;;;;5.40;39.00;;;;;;5019528;28;19920;-81
2024/01/31 08:18:38;;;;;;;;;;;5.90;36.20;;;;;;5016391;28;19913;-82
2024/01/31 08:27:10;;;;;;;;;;;6.00;39.60;;;;;;5014666;28;19944;-83
2024/01/31 08:32:38;;;;;;;;;;;6.30;36.50;;;;;;5018312;28;19912;-84
2024/01/31 08:38:27;;;;;;;;;;;6.40;39.80;;;;;;5034505;28;19912;-84
2024/01/31 08:46:59;;;;;;;;;;;6.90;40.20;;;;;;5018322;28;20028;-84
2024/01/31 08:49:33;;;;;;;;;;;7.10;37.20;;;;;;5017680;28;19917;-84
2024/01/31 08:52:15;;;;;;;;;;;7.20;40.60;;;;;;5032076;28;19905;-84
2024/01/31 08:55:15;;;;;;;;;;;7.30;40.50;;;;;;5033082;28;19905;-84
2024/01/31 08:57:51;;;;;;;;;;;7.50;40.70;;;;;;5033277;28;20311;-84
2024/01/31 09:00:17;;;;;;;;;;;7.70;31.80;;;;;;5027475;28;19909;-84
2024/01/31 09:02:46;;;;;;;;;;;7.80;28.10;;;;;;5026316;28;19962;-84
2024/01/31 09:08:22;;;;;;;;;;;8.10;22.90;;;;;;5018020;28;20002;-83
2024/01/31 09:13:50;;;;;;;;;;;8.30;19.50;;;;;;5024736;28;20418;-84
2024/01/31 09:19:19;;;;;;;;;;;8.40;17.80;;;;;;5023498;28;20001;-83
2024/01/31 09:25:06;;;;;;;;;;;8.60;13.30;;;;;;5014918;28;19912;-84
2024/01/31 09:27:32;;;;;;;;;;;8.80;11.30;;;;;;5015092;28;20289;-83
2024/01/31 09:42:10;;;;;;;;;;;9.40;1.00;;;;;;5017836;28;20600;-82
2024/01/31 09:47:40;;;;;;;;;;;9.70;1.00;;;;;;5026538;28;20032;-81
2024/01/31 09:53:10;;;;;;;;;;;9.90;1.00;;;;;;5024098;28;19955;-83
2024/01/31 09:55:55;;;;;;;;;;;9.90;1.00;;;;;;5025975;28;20007;-83
2024/01/31 10:07:30;;;;;;;;;;;10.20;1.00;;;;;;5029866;28;19915;-83
2024/01/31 10:12:59;;;;;;;;;;;10.50;1.00;;;;;;5037534;28;19912;-83
2024/01/31 10:34:04;;;;;;;;;;;11.00;1.00;;;;;;5032238;28;19963;-82
2024/01/31 10:40:04;;;;;;;;;;;10.80;1.00;;;;;;5017266;28;19916;-82
2024/01/31 10:42:51;;;;;;;;;;;10.60;1.00;;;;;;5015707;28;19906;-82
2024/01/31 10:48:28;;;;;;;;;;;10.50;1.00;;;;;;5020514;28;19916;-82
2024/01/31 10:53:58;;;;;;;;;;;10.70;1.00;;;;;;5018339;28;19917;-83
2024/01/31 10:56:45;;;;;;;;;;;11.10;1.00;;;;;;5032525;28;19910;-82
2024/01/31 10:59:33;;;;;;;;;;;11.30;1.00;;;;;;5016893;28;19909;-83
2024/01/31 11:02:34;;;;;;;;;;;11.40;1.00;;;;;;5022494;28;19913;-82
2024/01/31 11:05:16;;;;;;;;;;;11.50;1.00;;;;;;5019776;28;19932;-82
2024/01/31 11:16:50;;;;;;;;;;;10.40;1.00;;;;;;5027189;28;19912;-81
2024/01/31 11:25:27;;;;;;;;;;;10.20;1.00;;;;;;5027869;28;20012;-84
2024/01/31 11:27:53;;;;;;;;;;;11.90;1.00;;;;;;5031634;28;19924;-78
2024/01/31 11:33:42;;;;;;;;;;;10.20;1.00;;;;;;5036110;28;19996;-88
2024/01/31 11:36:07;;;;;;;;;;;10.10;1.00;;;;;;5025113;28;19940;-80
2024/01/31 11:38:46;;;;;;;;;;;10.00;1.00;;;;;;5027076;28;19913;-82
2024/01/31 11:41:27;;;;;;;;;;;10.00;1.00;;;;;;5015433;28;19910;-80
2024/01/31 11:43:53;;;;;;;;;;;10.00;1.00;;;;;;5028372;28;19915;-79
2024/01/31 11:49:22;;;;;;;;;;;10.60;1.00;;;;;;5015625;28;19920;-79
2024/01/31 11:55:06;;;;;;;;;;;10.70;1.00;;;;;;5018693;28;19927;-80
2024/01/31 12:00:46;;;;;;;;;;;10.90;1.00;;;;;;5024939;28;19916;-77
2024/01/31 12:03:33;;;;;;;;;;;11.00;1.00;;;;;;5034626;28;19905;-77
2024/01/31 12:06:10;;;;;;;;;;;11.00;1.00;;;;;;5026290;28;19905;-81
2024/01/31 12:08:52;;;;;;;;;;;10.90;1.00;;;;;;5019873;28;19917;-81
2024/01/31 12:20:28;;;;;;;;;;;10.80;1.00;;;;;;5024095;28;20280;-81
2024/01/31 12:23:04;;;;;;;;;;;10.80;1.00;;;;;;5137733;27;19917;-80
2024/01/31 12:25:29;;;;;;;;;;;10.80;1.00;;;;;;5143548;27;19915;-80
2024/01/31 12:31:03;;;;;;;;;;;11.10;1.00;;;;;;5121795;27;19915;-81
2024/01/31 12:33:34;;;;;;;;;;;11.40;1.00;;;;;;5143078;27;19908;-80
2024/01/31 12:36:04;;;;;;;;;;;11.30;1.00;;;;;;5147750;27;19952;-81
2024/01/31 12:38:34;;;;;;;;;;;11.30;1.00;;;;;;5164490;27;19912;-81
2024/01/31 12:41:16;;;;;;;;;;;11.10;1.00;;;;;;5132396;27;19915;-79
2024/01/31 12:44:15;;;;;;;;;;;10.90;1.00;;;;;;5133703;27;19935;-79
2024/01/31 12:46:46;;;;;;;;;;;10.90;1.00;;;;;;5133722;27;19963;-79
2024/01/31 12:49:22;;;;;;;;;;;10.90;1.00;;;;;;5143707;27;20002;-79
2024/01/31 12:51:49;;;;;;;;;;;10.90;1.00;;;;;;5145591;27;19907;-79
2024/01/31 12:54:27;;;;;;;;;;;10.70;1.00;;;;;;5138129;27;19912;-81
2024/01/31 12:59:56;;;;;;;;;;;10.60;1.00;;;;;;5128466;27;19919;-81
2024/01/31 13:02:33;;;;;;;;;;;10.70;1.00;;;;;;5122958;27;20357;-80
2024/01/31 13:05:16;;;;;;;;;;;10.60;1.00;;;;;;5122339;27;19949;-81
2024/01/31 13:07:52;;;;;;;;;;;10.70;1.00;;;;;;5124192;27;19960;-80
2024/01/31 13:10:27;;;;;;;;;;;10.60;1.00;;;;;;5129188;27;19918;-80
2024/01/31 13:12:53;;;;;;;;;;;10.70;1.00;;;;;;5124791;27;19919;-81
2024/01/31 13:18:58;;;;;;;;;;;10.20;1.00;;;;;;5125143;28;19915;-81
2024/01/31 13:21:23;;;;;;;;;;;10.20;1.00;;;;;;5128926;27;19945;-81
2024/01/31 13:23:49;;;;;;;;;;;10.40;1.00;;;;;;5135716;27;19915;-81
2024/01/31 13:26:16;;;;;;;;;;;10.10;1.00;;;;;;5130213;28;19915;-79
2024/01/31 13:28:58;;;;;;;;;;;10.00;1.00;;;;;;5130099;27;20281;-79
2024/01/31 13:31:34;;;;;;;;;;;9.80;1.00;;;;;;5123624;27;19912;-79
2024/01/31 13:34:04;;;;;;;;;;;9.80;1.00;;;;;;5117265;27;19913;-79
2024/01/31 13:36:34;;;;;;;;;;;10.00;1.00;;;;;;5128561;27;19911;-79
2024/01/31 13:38:59;;;;;;;;;;;10.10;1.00;;;;;;5102490;28;19908;-78
2024/01/31 13:41:28;;;;;;;;;;;10.20;1.00;;;;;;5117480;28;19984;-79
2024/01/31 13:43:53;;;;;;;;;;;10.20;1.00;;;;;;5097092;28;19939;-78
2024/01/31 13:46:22;;;;;;;;;;;10.30;1.00;;;;;;5106391;27;19916;-78
2024/01/31 13:48:52;;;;;;;;;;;10.30;1.00;;;;;;5102406;28;20002;-78
2024/01/31 13:51:17;;;;;;;;;;;10.30;1.00;;;;;;5116119;28;20029;-78
2024/01/31 13:54:10;;;;;;;;;;;10.40;1.00;;;;;;5100245;28;20006;-78
2024/01/31 13:56:40;;;;;;;;;;;10.40;1.00;;;;;;5097142;28;20003;-81
2024/01/31 13:59:28;;;;;;;;;;;10.50;1.00;;;;;;5096627;28;19916;-80
2024/01/31 14:01:58;;;;;;;;;;;10.40;1.00;;;;;;5114797;28;19916;-80
2024/01/31 14:04:34;;;;;;;;;;;10.20;1.00;;;;;;5107989;27;19912;-81
2024/01/31 14:07:10;;;;;;;;;;;10.20;1.00;;;;;;5114256;27;19911;-81
2024/01/31 14:10:03;;;;;;;;;;;10.10;1.00;;;;;;5121487;27;19914;-81
2024/01/31 14:15:33;;;;;;;;;;;10.10;1.00;;;;;;5113678;28;19923;-80
2024/01/31 14:18:10;;;;;;;;;;;10.10;1.00;;;;;;5102414;27;20011;-79
2024/01/31 14:20:37;;;;;;;;;;;10.10;1.00;;;;;;5110709;28;19959;-78
2024/01/31 14:23:03;;;;;;;;;;;10.00;1.00;;;;;;5124091;27;20394;-81
2024/01/31 14:25:28;;;;;;;;;;;10.00;1.00;;;;;;5116866;27;19996;-79
2024/01/31 14:27:54;;;;;;;;;;;10.20;1.00;;;;;;5115204;28;19908;-80
2024/01/31 14:30:29;;;;;;;;;;;10.20;1.00;;;;;;5116375;28;19908;-83
2024/01/31 14:33:16;;;;;;;;;;;10.40;1.00;;;;;;5116279;28;19922;-80
2024/01/31 14:35:58;;;;;;;;;;;10.40;1.00;;;;;;5116019;28;19908;-86
2024/01/31 14:41:26;;;;;;;;;;;10.30;1.00;;;;;;5103906;28;19918;-88
2024/01/31 14:43:58;;;;;;;;;;;10.20;1.00;;;;;;5115277;28;19943;-86
2024/01/31 14:46:57;;;;;;;;;;;10.30;1.00;;;;;;5111539;28;19965;-87
2024/01/31 14:49:58;;;;;;;;;;;10.20;1.00;;;;;;5095461;28;19916;-87
2024/01/31 14:55:26;;;;;;;;;;;9.80;1.00;;;;;;5103456;28;20000;-86
2024/01/31 14:57:52;;;;;;;;;;;9.80;1.00;;;;;;5101328;28;20369;-87
2024/01/31 15:09:46;;;;;;;;;;;9.80;1.00;;;;;;5115949;28;19914;-86
2024/01/31 15:18:22;;;;;;;;;;;9.60;1.00;;;;;;5115319;28;20329;-85
2024/01/31 15:20:47;;;;;;;;;;;9.60;1.00;;;;;;5114063;28;19914;-85
2024/01/31 15:23:13;;;;;;;;;;;9.50;1.00;;;;;;5114532;28;19915;-85
2024/01/31 15:28:42;;;;;;;;;;;9.50;1.00;;;;;;5115664;28;20270;-85
2024/01/31 15:31:10;;;;;;;;;;;9.60;1.00;;;;;;5115446;28;19911;-85
2024/01/31 15:39:41;;;;;;;;;;;9.40;1.00;;;;;;5110482;28;20305;-84
2024/01/31 15:45:23;;;;;;;;;;;9.40;1.00;;;;;;5111238;28;19919;-85
2024/01/31 15:47:58;;;;;;;;;;;9.40;1.00;;;;;;5105799;28;20322;-86
2024/01/31 15:50:46;;;;;;;;;;;9.40;1.00;;;;;;5102607;28;19916;-84
2024/01/31 15:53:11;;;;;;;;;;;9.40;1.00;;;;;;5124742;27;20003;-84
2024/01/31 15:55:58;;;;;;;;;;;9.30;1.00;;;;;;5106686;28;19939;-82
2024/01/31 15:58:34;;;;;;;;;;;9.30;1.00;;;;;;5108622;28;19961;-82
2024/01/31 16:01:16;;;;;;;;;;;9.30;1.00;;;;;;5110322;28;19993;-82
2024/01/31 16:03:42;;;;;;;;;;;9.20;1.00;;;;;;5103211;28;19944;-84
2024/01/31 16:06:07;;;;;;;;;;;9.10;1.00;;;;;;5131176;27;19908;-85
2024/01/31 16:08:34;;;;;;;;;;;9.10;1.00;;;;;;5104354;28;19919;-85
2024/01/31 16:10:59;;;;;;;;;;;8.80;1.00;;;;;;5108287;28;19908;-85
2024/01/31 16:13:25;;;;;;;;;;;8.80;1.00;;;;;;5107761;28;19918;-81
2024/01/31 16:15:51;;;;;;;;;;;8.80;1.00;;;;;;5106864;27;20015;-83
2024/01/31 16:18:17;;;;;;;;;;;8.70;1.00;;;;;;5102758;28;19915;-82
2024/01/31 16:20:44;;;;;;;;;;;8.60;1.00;;;;;;5113600;28;20536;-83
2024/01/31 16:26:13;;;;;;;;;;;8.40;1.00;;;;;;5110718;28;19933;-76
2024/01/31 16:28:38;;;;;;;;;;;8.20;1.00;;;;;;5114288;28;19911;-76
2024/01/31 16:31:11;;;;;;;;;;;8.20;1.00;;;;;;5096388;28;19958;-76
2024/01/31 16:33:37;;;;;;;;;;;8.10;1.00;;;;;;5136579;27;19912;-89
2024/01/31 16:36:02;;;;;;;;;;;8.00;1.00;;;;;;5107660;28;20295;-87
2024/01/31 16:41:58;;;;;;;;;;;7.60;1.00;;;;;;5096986;28;19935;-81
2024/01/31 16:44:28;;;;;;;;;;;7.60;1.00;;;;;;5101346;28;19916;-81
2024/01/31 16:46:54;;;;;;;;;;;7.60;1.00;;;;;;5113870;28;19916;-82
2024/01/31 16:49:28;;;;;;;;;;;7.50;1.00;;;;;;5128181;28;19908;-82
2024/01/31 16:52:28;;;;;;;;;;;7.30;1.00;;;;;;5107865;28;19916;-82
2024/01/31 16:55:28;;;;;;;;;;;7.30;1.00;;;;;;5118012;28;19916;-82
2024/01/31 16:57:58;;;;;;;;;;;7.10;1.00;;;;;;5110115;28;19912;-83
2024/01/31 17:03:27;;;;;;;;;;;6.90;1.00;;;;;;5095413;28;20390;-83
2024/01/31 17:05:59;;;;;;;;;;;6.80;1.00;;;;;;5110664;28;19939;-83
2024/01/31 17:08:30;;;;;;;;;;;6.80;1.00;;;;;;5100470;28;19954;-79
2024/01/31 17:11:20;;;;;;;;;;;6.70;1.00;;;;;;5115044;27;19918;-80
2024/01/31 17:13:52;;;;;;;;;;;6.70;1.00;;;;;;5110395;28;19978;-79
2024/01/31 17:16:21;;;;;;;;;;;6.70;1.00;;;;;;5115628;27;19942;-80
2024/01/31 17:18:52;;;;;;;;;;;6.60;1.00;;;;;;5096674;28;19915;-81
2024/01/31 17:21:17;;;;;;;;;;;6.50;1.00;;;;;;5098525;28;20344;-79
2024/01/31 17:23:43;;;;;;;;;;;6.50;1.00;;;;;;5117700;27;19966;-81
2024/01/31 17:26:34;;;;;;;;;;;6.50;1.00;;;;;;5099721;28;19947;-80
2024/01/31 17:29:10;;;;;;;;;;;6.40;1.00;;;;;;5116432;28;19908;-80
2024/01/31 17:31:49;;;;;;;;;;;6.40;1.00;;;;;;5097324;28;19955;-80
2024/01/31 17:34:34;;;;;;;;;;;6.40;1.00;;;;;;5107955;28;19915;-80
2024/01/31 17:37:10;;;;;;;;;;;6.40;1.00;;;;;;5096858;28;20382;-80
2024/01/31 17:39:40;;;;;;;;;;;6.30;1.00;;;;;;5111922;28;19915;-82
2024/01/31 17:42:34;;;;;;;;;;;6.20;1.00;;;;;;5105592;28;20025;-82
2024/01/31 17:48:03;;;;;;;;;;;6.10;1.00;;;;;;5100281;28;19977;-86
2024/01/31 17:50:40;;;;;;;;;;;6.00;1.00;;;;;;5096498;28;20359;-82
2024/01/31 17:53:22;;;;;;;;;;;5.90;1.00;;;;;;5101361;28;19912;-82
2024/01/31 17:56:05;;;;;;;;;;;5.70;1.00;;;;;;5107919;28;19908;-82
2024/01/31 17:58:46;;;;;;;;;;;5.60;1.00;;;;;;5097805;28;19912;-82
2024/01/31 18:01:40;;;;;;;;;;;5.40;1.00;;;;;;5095338;28;19962;-82
2024/01/31 18:10:16;;;;;;;;;;;5.20;1.00;;;;;;5102824;28;19957;-81
2024/01/31 18:13:16;;;;;;;;;;;5.00;1.00;;;;;;5117270;27;19915;-82
2024/01/31 18:15:58;;;;;;;;;;;5.00;1.00;;;;;;5115372;28;19908;-82
2024/01/31 18:18:28;;;;;;;;;;;4.90;1.00;;;;;;5114163;27;19938;-81
2024/01/31 18:20:53;;;;;;;;;;;4.80;1.00;;;;;;5095995;28;19912;-81
2024/01/31 18:23:22;;;;;;;;;;;4.70;1.00;;;;;;5108183;28;19911;-82
2024/01/31 18:26:04;;;;;;;;;;;4.70;1.00;;;;;;5104638;28;20340;-82
2024/01/31 18:31:32;;;;;;;;;;;4.70;1.00;;;;;;5110904;28;19961;-84
2024/01/31 18:40:28;;;;;;;;;;;4.80;1.00;;;;;;5133929;27;19957;-84
2024/01/31 18:43:04;;;;;;;;;;;4.90;1.00;;;;;;5099143;28;20073;-82
2024/01/31 18:45:34;;;;;;;;;;;4.90;1.00;;;;;;5100739;28;20003;-81
2024/01/31 18:48:28;;;;;;;;;;;4.80;1.00;;;;;;5103973;28;19912;-82
2024/01/31 18:51:10;;;;;;;;;;;4.80;1.00;;;;;;5102302;27;19960;-82
2024/01/31 18:53:39;;;;;;;;;;;4.80;1.00;;;;;;5101882;28;20283;-81
2024/01/31 18:56:22;;;;;;;;;;;4.70;1.00;;;;;;5116039;28;19955;-82
2024/01/31 18:58:59;;;;;;;;;;;4.60;1.00;;;;;;5105108;28;19916;-83
2024/01/31 19:02:00;;;;;;;;;;;4.60;1.00;;;;;;5095480;28;19912;-83
2024/01/31 19:04:26;;;;;;;;;;;4.50;1.00;;;;;;5103598;27;19912;-80
2024/01/31 19:06:58;;;;;;;;;;;4.50;1.00;;;;;;5114537;28;20355;-82
2024/01/31 19:12:26;;;;;;;;;;;4.50;1.00;;;;;;5095100;28;20286;-82
2024/01/31 19:18:22;;;;;;;;;;;4.70;1.00;;;;;;5096029;28;19916;-71
2024/01/31 19:20:47;;;;;;;;;;;4.80;1.00;;;;;;5094158;28;19913;-83
2024/01/31 19:23:28;;;;;;;;;;;4.90;1.00;;;;;;5124064;27;19926;-88
2024/01/31 19:26:19;;;;;;;;;;;5.00;1.00;;;;;;5112276;27;19968;-88
2024/01/31 19:28:46;;;;;;;;;;;5.10;1.00;;;;;;5101023;28;19912;-81
2024/01/31 19:31:16;;;;;;;;;;;5.10;1.00;;;;;;5097699;28;19908;-78
2024/01/31 19:33:52;;;;;;;;;;;5.30;1.00;;;;;;5105995;28;19908;-84
2024/01/31 19:36:22;;;;;;;;;;;5.40;1.00;;;;;;5113673;27;19940;-78
2024/01/31 19:38:58;;;;;;;;;;;5.50;1.00;;;;;;5094896;28;19930;-80
2024/01/31 19:41:25;;;;;;;;;;;5.50;1.00;;;;;;5100851;28;19966;-77
2024/01/31 19:43:58;;;;;;;;;;;5.50;1.00;;;;;;5101704;28;19978;-77
2024/01/31 19:46:52;;;;;;;;;;;5.50;1.00;;;;;;5106605;28;19976;-76
2024/01/31 19:49:46;;;;;;;;;;;5.50;1.00;;;;;;5104744;28;19963;-79
2024/01/31 19:52:12;;;;;;;;;;;5.50;1.00;;;;;;5109930;28;19907;-79
2024/01/31 19:54:58;;;;;;;;;;;5.50;1.00;;;;;;5096114;28;19922;-79
2024/01/31 19:57:29;;;;;;;;;;;5.40;1.00;;;;;;5095309;28;20278;-81
2024/01/31 19:59:58;;;;;;;;;;;5.40;1.00;;;;;;5107598;28;19915;-80
2024/01/31 20:02:28;;;;;;;;;;;5.30;1.00;;;;;;5102004;28;19916;-80
2024/01/31 20:05:22;;;;;;;;;;;5.40;1.00;;;;;;5114693;28;20324;-80
2024/01/31 20:07:59;;;;;;;;;;;5.40;1.00;;;;;;5105382;28;19911;-80
2024/01/31 20:10:28;;;;;;;;;;;5.40;1.00;;;;;;5103933;28;19912;-80
2024/01/31 20:12:58;;;;;;;;;;;5.40;1.00;;;;;;5094387;28;19919;-80
2024/01/31 20:15:40;;;;;;;;;;;5.40;1.00;;;;;;5107539;28;19912;-79
2024/01/31 20:18:11;;;;;;;;;;;5.40;1.00;;;;;;5098463;28;19972;-79
2024/01/31 20:20:40;;;;;;;;;;;5.30;1.00;;;;;;5102995;28;19946;-79
2024/01/31 20:23:09;;;;;;;;;;;5.20;1.00;;;;;;5094605;28;20302;-79
2024/01/31 20:25:40;;;;;;;;;;;5.20;1.00;;;;;;5103013;28;19987;-79
2024/01/31 20:28:06;;;;;;;;;;;5.10;1.00;;;;;;5098623;28;19918;-79
2024/01/31 20:30:34;;;;;;;;;;;5.20;1.00;;;;;;5104565;28;20262;-79
2024/01/31 20:33:00;;;;;;;;;;;5.20;1.00;;;;;;5112832;28;19908;-79
2024/01/31 20:35:28;;;;;;;;;;;5.10;1.00;;;;;;5106109;28;20006;-79
2024/01/31 20:37:53;;;;;;;;;;;5.10;1.00;;;;;;5095384;28;19942;-79
2024/01/31 20:40:28;;;;;;;;;;;5.00;1.00;;;;;;5094402;28;19909;-79
2024/01/31 20:42:53;;;;;;;;;;;4.90;1.00;;;;;;5101903;28;19976;-79
2024/01/31 20:45:29;;;;;;;;;;;4.90;1.00;;;;;;5104930;28;19908;-79
2024/01/31 20:48:10;;;;;;;;;;;4.80;1.00;;;;;;5106471;28;19914;-79
2024/01/31 20:50:35;;;;;;;;;;;4.70;1.00;;;;;;5113195;28;19908;-79
2024/01/31 20:53:04;;;;;;;;;;;4.60;1.00;;;;;;5101371;27;19918;-79
2024/01/31 20:55:46;;;;;;;;;;;4.50;1.00;;;;;;5112331;27;19912;-79
2024/01/31 20:58:11;;;;;;;;;;;4.40;1.00;;;;;;5118287;28;19908;-79
2024/01/31 21:00:46;;;;;;;;;;;4.30;1.00;;;;;;5115040;28;19915;-79
2024/01/31 21:03:34;;;;;;;;;;;4.20;1.00;;;;;;5103043;28;19916;-79
2024/01/31 21:06:00;;;;;;;;;;;4.10;1.00;;;;;;5102580;28;20351;-79
2024/01/31 21:08:28;;;;;;;;;;;4.00;1.00;;;;;;5106474;28;19908;-79
2024/01/31 21:10:58;;;;;;;;;;;3.90;1.00;;;;;;5111068;28;19951;-79
2024/01/31 21:13:23;;;;;;;;;;;3.80;1.00;;;;;;5097559;28;19919;-79
2024/01/31 21:15:52;;;;;;;;;;;3.90;1.00;;;;;;5110637;28;19912;-79
2024/01/31 21:18:22;;;;;;;;;;;3.60;1.00;;;;;;5097390;28;19957;-79
2024/01/31 21:20:47;;;;;;;;;;;3.50;1.00;;;;;;5098479;28;19974;-79
2024/01/31 21:23:16;;;;;;;;;;;3.50;1.00;;;;;;5112098;28;19920;-79
2024/01/31 21:26:10;;;;;;;;;;;3.40;1.00;;;;;;5104348;28;19956;-79
2024/01/31 21:31:36;;;;;;;;;;;3.40;1.00;;;;;;5111019;28;19907;-79
2024/01/31 21:34:10;;;;;;;;;;;3.30;1.00;;;;;;5100000;28;19912;-78
2024/01/31 21:36:40;;;;;;;;;;;3.30;1.00;;;;;;5105890;28;19913;-79
2024/01/31 21:39:28;;;;;;;;;;;3.30;1.00;;;;;;5101002;28;19951;-79
2024/01/31 21:41:58;;;;;;;;;;;3.30;1.00;;;;;;5103650;28;19932;-79
2024/01/31 21:44:28;;;;;;;;;;;3.40;1.00;;;;;;5103141;28;19956;-80
2024/01/31 21:46:58;;;;;;;;;;;3.40;1.00;;;;;;5106117;28;19959;-79
2024/01/31 21:49:28;;;;;;;;;;;3.70;1.00;;;;;;5103236;28;19912;-80
2024/01/31 21:51:58;;;;;;;;;;;3.80;1.00;;;;;;5108404;27;19919;-80
2024/01/31 21:54:23;;;;;;;;;;;3.90;1.00;;;;;;5096363;28;19912;-79
2024/01/31 21:56:58;;;;;;;;;;;4.00;1.00;;;;;;5096637;28;19912;-79
2024/01/31 21:59:34;;;;;;;;;;;4.20;1.00;;;;;;5097883;28;19916;-79
2024/01/31 22:02:16;;;;;;;;;;;4.40;1.00;;;;;;5107953;28;19911;-79
2024/01/31 22:04:47;;;;;;;;;;;4.50;1.00;;;;;;5103797;27;19908;-79
2024/01/31 22:07:28;;;;;;;;;;;4.70;1.00;;;;;;5108087;28;19908;-79
2024/01/31 22:09:54;;;;;;;;;;;4.80;1.00;;;;;;5107637;28;19941;-79
2024/01/31 22:12:22;;;;;;;;;;;4.90;1.00;;;;;;5098808;28;19908;-79
2024/01/31 22:15:16;;;;;;;;;;;5.00;1.00;;;;;;5097404;28;19908;-80
2024/01/31 22:17:43;;;;;;;;;;;5.10;1.00;;;;;;5096212;28;19916;-80
2024/01/31 22:20:13;;;;;;;;;;;5.10;1.00;;;;;;5108855;28;19935;-79
2024/01/31 22:22:39;;;;;;;;;;;5.20;1.00;;;;;;5094710;28;19920;-79
2024/01/31 22:25:34;;;;;;;;;;;5.30;1.00;;;;;;5106070;28;20390;-79
2024/01/31 22:28:10;;;;;;;;;;;5.40;1.00;;;;;;5096160;28;19916;-79
2024/01/31 22:30:52;;;;;;;;;;;5.60;1.00;;;;;;5104075;28;19915;-81
2024/01/31 22:33:18;;;;;;;;;;;5.70;1.00;;;;;;5115836;28;19908;-81
2024/01/31 22:35:58;;;;;;;;;;;5.80;1.00;;;;;;5109949;28;19962;-81
2024/01/31 22:38:28;;;;;;;;;;;5.90;1.00;;;;;;5111800;28;19916;-81
2024/01/31 22:40:55;;;;;;;;;;;5.90;1.00;;;;;;5116274;28;20002;-81
2024/01/31 22:46:46;;;;;;;;;;;6.10;1.00;;;;;;5111659;28;19962;-79
2024/01/31 22:49:22;;;;;;;;;;;6.10;1.00;;;;;;5095653;28;19912;-79
2024/01/31 22:51:58;;;;;;;;;;;6.20;1.00;;;;;;5095593;28;19908;-79
2024/01/31 22:54:26;;;;;;;;;;;6.20;1.00;;;;;;5096701;28;19912;-79
2024/01/31 22:56:52;;;;;;;;;;;6.20;1.00;;;;;;5094713;28;19919;-79
2024/01/31 22:59:46;;;;;;;;;;;6.20;1.00;;;;;;5112075;28;19908;-79
2024/01/31 23:02:22;;;;;;;;;;;6.10;1.00;;;;;;5102251;28;20038;-79
2024/01/31 23:05:10;;;;;;;;;;;6.00;1.00;;;;;;5106905;28;19915;-79
2024/01/31 23:07:40;;;;;;;;;;;5.80;1.00;;;;;;5095209;27;19934;-79
2024/01/31 23:10:10;;;;;;;;;;;5.70;1.00;;;;;;5095268;28;19961;-80
2024/01/31 23:12:40;;;;;;;;;;;5.80;1.00;;;;;;5096637;28;19919;-79
2024/01/31 23:15:06;;;;;;;;;;;5.70;1.00;;;;;;5095269;28;19909;-79
2024/01/31 23:17:46;;;;;;;;;;;5.70;1.00;;;;;;5100648;28;20327;-78
2024/01/31 23:20:16;;;;;;;;;;;5.70;1.00;;;;;;5100469;28;19908;-78
2024/01/31 23:22:58;;;;;;;;;;;5.60;1.00;;;;;;5105181;28;19920;-79
2024/01/31 23:25:28;;;;;;;;;;;5.60;1.00;;;;;;5108416;28;19951;-79
2024/01/31 23:28:04;;;;;;;;;;;5.70;1.00;;;;;;5097751;28;19964;-78